createdAt,value
2019-06-07T00:00:29.758Z,12.41
2019-06-07T00:01:11.446Z,12.41
2019-06-07T00:02:16.495Z,12.37
2019-06-07T00:03:23.978Z,12.41
2019-06-07T00:04:13.650Z,12.49
2019-06-07T00:05:14.947Z,12.41
2019-06-07T00:06:15.095Z,12.39
2019-06-07T00:07:14.341Z,12.34
2019-06-07T00:08:22.636Z,12.39
2019-06-07T00:09:15.317Z,12.41
2019-06-07T00:10:34.574Z,12.38
2019-06-07T00:11:18.108Z,12.44
2019-06-07T00:12:17.584Z,12.44
2019-06-07T00:13:19.850Z,12.54
2019-06-07T00:14:16.029Z,12.45
2019-06-07T00:15:18.131Z,12.41
2019-06-07T00:16:18.963Z,12.41
2019-06-07T00:17:17.555Z,12.20
2019-06-07T00:18:20.042Z,12.27
2019-06-07T00:19:16.247Z,12.24
2019-06-07T00:20:19.473Z,12.24
2019-06-07T00:21:17.852Z,12.29
2019-06-07T00:22:30.123Z,12.15
2019-06-07T00:23:20.199Z,12.39
2019-06-07T00:24:16.825Z,12.37
2019-06-07T00:25:22.863Z,12.30
2019-06-07T00:26:18.192Z,12.34
2019-06-07T00:27:18.253Z,12.48
2019-06-07T00:28:17.358Z,12.31
2019-06-07T00:29:18.863Z,12.24
2019-06-07T00:30:39.563Z,12.37
2019-06-07T00:31:22.283Z,12.30
2019-06-07T00:32:19.099Z,12.24
2019-06-07T00:33:21.723Z,12.37
2019-06-07T00:34:20.035Z,12.31
2019-06-07T00:35:22.137Z,12.37
2019-06-07T00:36:20.654Z,12.30
2019-06-07T00:37:20.638Z,12.34
2019-06-07T00:38:20.459Z,12.34
2019-06-07T00:39:22.912Z,12.37
2019-06-07T00:40:29.997Z,12.33
2019-06-07T00:41:22.269Z,12.38
2019-06-07T00:42:21.622Z,12.27
2019-06-07T00:43:25.847Z,12.34
2019-06-07T00:44:21.511Z,12.29
2019-06-07T00:45:22.431Z,12.20
2019-06-07T00:46:21.635Z,12.26
2019-06-07T00:47:24.889Z,12.33
2019-06-07T00:48:30.830Z,12.31
2019-06-07T00:49:36.058Z,12.41
2019-06-07T00:50:23.929Z,12.42
2019-06-07T00:51:21.924Z,12.48
2019-06-07T00:53:11.839Z,12.39
2019-06-07T00:53:31.064Z,12.34
2019-06-07T00:54:24.063Z,12.30
2019-06-07T00:55:27.507Z,12.29
2019-06-07T00:56:23.506Z,12.30
2019-06-07T00:57:24.459Z,12.24
2019-06-07T00:58:27.506Z,12.19
2019-06-07T00:59:28.792Z,12.16
2019-06-07T01:00:25.518Z,12.15
2019-06-07T01:01:25.595Z,12.15
2019-06-07T01:02:28.804Z,12.27
2019-06-07T01:03:25.804Z,12.24
2019-06-07T01:04:26.045Z,12.16
2019-06-07T01:05:31.153Z,12.26
2019-06-07T01:06:26.001Z,12.26
2019-06-07T01:07:25.987Z,12.24
2019-06-07T01:08:28.162Z,12.26
2019-06-07T01:09:26.078Z,12.21
2019-06-07T01:10:51.540Z,12.37
2019-06-07T01:11:26.175Z,12.23
2019-06-07T01:12:27.004Z,12.33
2019-06-07T01:13:26.979Z,12.24
2019-06-07T01:14:28.733Z,12.20
2019-06-07T01:15:29.033Z,12.24
2019-06-07T01:16:26.620Z,12.16
2019-06-07T01:17:39.191Z,12.01
2019-06-07T01:18:37.705Z,11.99
2019-06-07T01:19:28.489Z,12.01
2019-06-07T01:20:27.073Z,12.11
2019-06-07T01:21:29.953Z,12.11
2019-06-07T01:22:29.186Z,12.21
2019-06-07T01:24:05.531Z,12.15
2019-06-07T01:24:29.492Z,12.19
2019-06-07T01:25:29.044Z,12.15
2019-06-07T01:26:30.384Z,12.15
2019-06-07T01:27:28.841Z,12.05
2019-06-07T01:28:30.074Z,12.04
2019-06-07T01:29:30.841Z,12.15
2019-06-07T01:30:30.987Z,12.04
2019-06-07T01:31:31.627Z,11.93
2019-06-07T01:32:31.734Z,11.86
2019-06-07T01:33:49.883Z,11.82
2019-06-07T01:34:31.500Z,11.83
2019-06-07T01:35:30.213Z,11.71
2019-06-07T01:36:31.103Z,11.67
2019-06-07T01:37:30.532Z,11.68
2019-06-07T01:38:32.117Z,11.65
2019-06-07T01:39:31.819Z,11.72
2019-06-07T01:40:33.027Z,11.72
2019-06-07T01:41:32.495Z,11.74
2019-06-07T01:42:31.231Z,11.72
2019-06-07T01:43:31.411Z,11.64
2019-06-07T01:44:31.523Z,11.65
2019-06-07T01:45:31.703Z,11.71
2019-06-07T01:46:31.918Z,11.67
2019-06-07T01:47:32.471Z,11.75
2019-06-07T01:48:48.413Z,11.78
2019-06-07T01:49:32.536Z,11.74
2019-06-07T01:50:32.737Z,11.78
2019-06-07T01:51:32.948Z,11.71
2019-06-07T01:52:33.164Z,11.78
2019-06-07T01:53:33.370Z,11.82
2019-06-07T01:54:57.168Z,11.75
2019-06-07T01:55:33.787Z,11.75
2019-06-07T01:56:34.003Z,11.80
2019-06-07T01:57:47.409Z,11.78
2019-06-07T01:58:34.424Z,11.75
2019-06-07T01:59:34.645Z,11.70
2019-06-07T02:00:34.859Z,11.74
2019-06-07T02:01:36.990Z,11.77
2019-06-07T02:02:35.219Z,11.67
2019-06-07T02:03:35.417Z,11.61
2019-06-07T02:04:35.666Z,11.54
2019-06-07T02:05:35.885Z,11.53
2019-06-07T02:06:37.999Z,11.35
2019-06-07T02:07:36.203Z,11.35
2019-06-07T02:08:36.421Z,11.27
2019-06-07T02:09:38.535Z,11.29
2019-06-07T02:10:38.902Z,11.39
2019-06-07T02:11:36.982Z,11.24
2019-06-07T02:12:43.298Z,11.34
2019-06-07T02:13:38.997Z,11.32
2019-06-07T02:14:37.577Z,11.39
2019-06-07T02:15:37.780Z,11.41
2019-06-07T02:16:37.998Z,11.53
2019-06-07T02:17:39.991Z,11.56
2019-06-07T02:18:58.812Z,11.62
2019-06-07T02:19:40.509Z,11.52
2019-06-07T02:20:40.547Z,11.57
2019-06-07T02:21:38.893Z,11.54
2019-06-07T02:22:41.995Z,11.56
2019-06-07T02:23:39.322Z,11.41
2019-06-07T02:24:39.550Z,11.47
2019-06-07T02:25:48.685Z,11.52
2019-06-07T02:26:39.949Z,11.61
2019-06-07T02:27:40.166Z,11.52
2019-06-07T02:28:45.519Z,11.54
2019-06-07T02:29:40.580Z,11.56
2019-06-07T02:30:52.490Z,11.62
2019-06-07T02:31:40.915Z,11.57
2019-06-07T02:32:41.149Z,11.53
2019-06-07T02:33:41.360Z,11.46
2019-06-07T02:34:41.597Z,11.50
2019-06-07T02:35:41.784Z,11.31
2019-06-07T02:36:41.981Z,11.32
2019-06-07T02:37:42.168Z,11.29
2019-06-07T02:38:44.024Z,11.20
2019-06-07T02:39:42.483Z,11.27
2019-06-07T02:40:42.688Z,11.31
2019-06-07T02:41:42.905Z,11.31
2019-06-07T02:42:43.106Z,11.31
2019-06-07T02:43:43.302Z,11.29
2019-06-07T02:44:43.530Z,11.27
2019-06-07T02:45:43.994Z,11.35
2019-06-07T02:46:49.450Z,11.32
2019-06-07T02:47:44.066Z,11.35
2019-06-07T02:48:44.283Z,11.38
2019-06-07T02:49:44.773Z,11.20
2019-06-07T02:50:44.747Z,11.31
2019-06-07T02:51:44.918Z,11.32
2019-06-07T02:52:45.129Z,11.29
2019-06-07T02:53:45.328Z,11.28
2019-06-07T02:54:47.498Z,11.41
2019-06-07T02:56:34.343Z,11.38
2019-06-07T02:56:58.105Z,11.50
2019-06-07T02:57:46.088Z,11.47
2019-06-07T02:58:46.301Z,11.47
2019-06-07T03:00:06.290Z,11.35
2019-06-07T03:01:03.991Z,11.39
2019-06-07T03:01:46.852Z,11.25
2019-06-07T03:02:49.012Z,11.38
2019-06-07T03:03:47.222Z,11.34
2019-06-07T03:04:47.432Z,11.32
2019-06-07T03:05:47.669Z,11.36
2019-06-07T03:06:47.864Z,11.31
2019-06-07T03:07:49.998Z,11.36
2019-06-07T03:08:48.212Z,11.39
2019-06-07T03:09:49.421Z,11.36
2019-06-07T03:10:48.634Z,11.36
2019-06-07T03:11:48.840Z,11.39
2019-06-07T03:12:49.089Z,11.20
2019-06-07T03:13:49.269Z,11.28
2019-06-07T03:14:49.472Z,11.29
2019-06-07T03:15:51.498Z,11.24
2019-06-07T03:16:49.845Z,11.24
2019-06-07T03:17:50.062Z,11.27
2019-06-07T03:18:50.276Z,11.31
2019-06-07T03:19:50.477Z,11.31
2019-06-07T03:21:04.631Z,11.38
2019-06-07T03:21:50.889Z,11.39
2019-06-07T03:22:53.009Z,11.38
2019-06-07T03:23:51.330Z,11.32
2019-06-07T03:24:51.549Z,11.34
2019-06-07T03:25:53.522Z,11.38
2019-06-07T03:27:53.992Z,11.39
2019-06-07T03:28:53.999Z,11.34
2019-06-07T03:29:52.461Z,11.39
2019-06-07T03:31:01.964Z,11.53
2019-06-07T03:31:52.870Z,11.56
2019-06-07T03:32:53.085Z,11.47
2019-06-07T03:33:53.301Z,11.50
2019-06-07T03:34:53.504Z,11.50
2019-06-07T03:35:53.712Z,11.50
2019-06-07T03:36:53.931Z,11.47
2019-06-07T03:37:56.004Z,11.44
2019-06-07T03:38:54.338Z,11.28
2019-06-07T03:39:54.552Z,11.38
2019-06-07T03:40:56.496Z,11.34
2019-06-07T03:42:05.664Z,11.41
2019-06-07T03:42:55.082Z,11.35
2019-06-07T03:43:55.299Z,11.34
2019-06-07T03:44:55.516Z,11.35
2019-06-07T03:45:57.501Z,11.43
2019-06-07T03:46:55.998Z,11.32
2019-06-07T03:47:56.174Z,11.34
2019-06-07T03:48:58.028Z,11.29
2019-06-07T03:49:56.607Z,11.24
2019-06-07T03:51:04.586Z,11.17
2019-06-07T03:51:59.007Z,11.21
2019-06-07T03:52:57.216Z,11.32
2019-06-07T03:53:59.022Z,11.25
2019-06-07T03:54:57.602Z,11.36
2019-06-07T03:55:57.814Z,11.24
2019-06-07T03:56:58.031Z,11.20
2019-06-07T03:58:30.645Z,11.19
2019-06-07T03:58:58.465Z,11.19
2019-06-07T03:59:58.665Z,11.13
2019-06-07T04:01:02.150Z,11.20
2019-06-07T04:01:59.083Z,11.17
2019-06-07T04:02:59.319Z,11.24
2019-06-07T04:03:59.494Z,11.28
2019-06-07T04:04:59.704Z,11.29
2019-06-07T04:05:59.922Z,11.38
2019-06-07T04:07:01.217Z,11.35
2019-06-07T04:08:00.341Z,11.41
2019-06-07T04:09:01.564Z,11.32
2019-06-07T04:10:00.785Z,11.39
2019-06-07T04:11:05.546Z,11.34
2019-06-07T04:12:01.217Z,11.35
2019-06-07T04:13:01.406Z,11.39
2019-06-07T04:14:01.617Z,11.36
2019-06-07T04:15:01.869Z,11.46
2019-06-07T04:16:02.059Z,11.32
2019-06-07T04:17:03.999Z,11.39
2019-06-07T04:18:04.056Z,11.46
2019-06-07T04:19:04.521Z,11.32
2019-06-07T04:20:04.531Z,11.24
2019-06-07T04:21:02.987Z,11.27
2019-06-07T04:22:03.165Z,11.35
2019-06-07T04:23:25.092Z,11.41
2019-06-07T04:24:05.004Z,11.50
2019-06-07T04:25:03.587Z,11.47
2019-06-07T04:26:05.516Z,11.47
2019-06-07T04:27:03.985Z,11.36
2019-06-07T04:28:04.183Z,11.27
2019-06-07T04:30:07.743Z,11.19
2019-06-07T04:31:04.829Z,11.31
2019-06-07T04:32:07.006Z,11.41
2019-06-07T04:33:05.229Z,11.56
2019-06-07T04:34:05.342Z,11.52
2019-06-07T04:35:05.549Z,11.59
2019-06-07T04:36:05.755Z,11.56
2019-06-07T04:37:05.990Z,11.57
2019-06-07T04:38:06.199Z,11.50
2019-06-07T04:39:06.443Z,11.54
2019-06-07T04:40:06.537Z,11.61
2019-06-07T04:41:06.776Z,11.57
2019-06-07T04:42:08.497Z,11.52
2019-06-07T04:43:07.080Z,11.56
2019-06-07T04:44:07.277Z,11.57
2019-06-07T04:45:29.226Z,11.65
2019-06-07T04:46:11.513Z,11.50
2019-06-07T04:47:07.850Z,11.62
2019-06-07T04:48:08.053Z,11.54
2019-06-07T04:49:08.256Z,11.67
2019-06-07T04:50:08.468Z,11.67
2019-06-07T04:51:08.708Z,11.56
2019-06-07T04:52:08.911Z,11.59
2019-06-07T04:53:09.100Z,11.56
2019-06-07T04:54:09.313Z,11.67
2019-06-07T04:55:12.525Z,11.85
2019-06-07T04:56:13.503Z,11.71
2019-06-07T04:57:11.500Z,11.64
2019-06-07T04:58:10.089Z,11.59
2019-06-07T04:59:12.003Z,11.62
2019-06-07T05:00:22.670Z,11.65
2019-06-07T05:01:26.272Z,11.61
2019-06-07T05:02:10.900Z,11.65
2019-06-07T05:03:11.108Z,11.56
2019-06-07T05:04:13.001Z,11.62
2019-06-07T05:05:11.451Z,11.62
2019-06-07T05:06:13.516Z,11.56
2019-06-07T05:07:11.869Z,11.49
2019-06-07T05:08:27.399Z,11.44
2019-06-07T05:09:12.282Z,11.38
2019-06-07T05:10:12.503Z,11.34
2019-06-07T05:11:12.711Z,11.49
2019-06-07T05:12:12.923Z,11.36
2019-06-07T05:13:13.140Z,11.38
2019-06-07T05:14:13.341Z,11.49
2019-06-07T05:15:13.552Z,11.39
2019-06-07T05:16:15.501Z,11.32
2019-06-07T05:17:15.509Z,11.34
2019-06-07T05:18:14.113Z,11.50
2019-06-07T05:19:14.312Z,11.67
2019-06-07T05:20:16.094Z,11.77
2019-06-07T05:21:16.502Z,11.90
2019-06-07T05:22:14.902Z,11.94
2019-06-07T05:23:59.304Z,11.89
2019-06-07T05:24:15.076Z,11.89
2019-06-07T05:25:17.079Z,11.77
2019-06-07T05:26:15.471Z,11.80
2019-06-07T05:27:15.675Z,11.83
2019-06-07T05:28:15.893Z,11.77
2019-06-07T05:29:16.108Z,11.71
2019-06-07T05:30:57.907Z,11.74
2019-06-07T05:31:20.504Z,11.61
2019-06-07T05:32:16.716Z,11.68
2019-06-07T05:33:16.930Z,11.57
2019-06-07T05:34:17.192Z,11.65
2019-06-07T05:35:17.397Z,11.62
2019-06-07T05:36:17.559Z,11.62
2019-06-07T05:37:17.785Z,11.70
2019-06-07T05:38:21.504Z,11.77
2019-06-07T05:39:18.215Z,11.70
2019-06-07T05:40:18.429Z,11.72
2019-06-07T05:41:18.632Z,11.93
2019-06-07T05:42:18.843Z,11.94
2019-06-07T05:43:21.000Z,11.94
2019-06-07T05:44:21.020Z,12.01
2019-06-07T05:45:19.348Z,11.99
2019-06-07T05:46:19.582Z,11.94
2019-06-07T05:47:19.815Z,11.99
2019-06-07T05:48:20.004Z,12.06
2019-06-07T05:49:21.239Z,12.06
2019-06-07T05:50:39.207Z,12.12
2019-06-07T05:51:20.632Z,11.97
2019-06-07T05:52:23.516Z,11.97
2019-06-07T05:53:20.974Z,12.06
2019-06-07T05:54:21.209Z,12.04
2019-06-07T05:55:21.314Z,12.11
2019-06-07T05:56:21.578Z,12.19
2019-06-07T05:57:21.752Z,12.09
2019-06-07T05:58:21.964Z,12.04
2019-06-07T05:59:22.207Z,11.93
2019-06-07T06:00:22.288Z,12.16
2019-06-07T06:01:45.104Z,12.08
2019-06-07T06:02:24.762Z,12.16
2019-06-07T06:03:22.925Z,12.19
2019-06-07T06:04:23.147Z,12.21
2019-06-07T06:05:33.381Z,12.30
2019-06-07T06:06:23.549Z,12.34
2019-06-07T06:07:23.760Z,12.49
2019-06-07T06:08:23.973Z,12.51
2019-06-07T06:09:26.018Z,12.67
2019-06-07T06:10:24.347Z,12.74
2019-06-07T06:11:43.173Z,12.62
2019-06-07T06:12:34.722Z,12.52
2019-06-07T06:13:24.928Z,12.39
2019-06-07T06:14:25.137Z,12.38
2019-06-07T06:15:41.823Z,12.41
2019-06-07T06:16:25.551Z,12.13
2019-06-07T06:17:25.799Z,12.19
2019-06-07T06:18:27.504Z,12.11
2019-06-07T06:19:26.208Z,12.09
2019-06-07T06:20:32.892Z,12.16
2019-06-07T06:21:26.639Z,12.15
2019-06-07T06:22:26.841Z,12.30
2019-06-07T06:23:27.060Z,12.29
2019-06-07T06:24:27.267Z,12.23
2019-06-07T06:25:32.972Z,12.19
2019-06-07T06:26:27.682Z,12.31
2019-06-07T06:28:03.226Z,12.27
2019-06-07T06:28:30.779Z,12.29
2019-06-07T06:29:28.273Z,12.42
2019-06-07T06:30:28.483Z,12.63
2019-06-07T06:31:33.357Z,12.54
2019-06-07T06:32:41.947Z,12.71
2019-06-07T06:33:34.450Z,12.69
2019-06-07T06:34:31.025Z,12.79
2019-06-07T06:35:29.369Z,12.89
2019-06-07T06:36:29.573Z,12.92
2019-06-07T06:37:29.787Z,12.99
2019-06-07T06:38:30.001Z,12.99
2019-06-07T06:39:32.003Z,13.17
2019-06-07T06:40:30.343Z,13.15
2019-06-07T06:41:30.558Z,13.20
2019-06-07T06:42:30.771Z,13.24
2019-06-07T06:43:32.512Z,13.49
2019-06-07T06:44:31.094Z,13.70
2019-06-07T06:45:31.306Z,14.02
2019-06-07T06:46:38.703Z,14.14
2019-06-07T06:47:33.505Z,14.35
2019-06-07T06:48:31.836Z,14.31
2019-06-07T06:49:32.038Z,14.28
2019-06-07T06:50:32.253Z,14.27
2019-06-07T06:51:32.526Z,14.44
2019-06-07T06:52:32.609Z,14.67
2019-06-07T06:53:34.506Z,14.71
2019-06-07T06:54:40.614Z,14.80
2019-06-07T06:55:34.470Z,14.84
2019-06-07T06:56:33.302Z,14.71
2019-06-07T06:57:33.511Z,14.62
2019-06-07T06:59:18.635Z,14.49
2019-06-07T06:59:39.329Z,14.35
2019-06-07T07:00:46.394Z,14.38
2019-06-07T07:01:34.332Z,14.39
2019-06-07T07:02:34.555Z,14.38
2019-06-07T07:04:06.220Z,14.57
2019-06-07T07:04:36.504Z,14.69
2019-06-07T07:05:35.081Z,14.91
2019-06-07T07:06:37.045Z,15.12
2019-06-07T07:07:35.621Z,15.23
2019-06-07T07:08:37.510Z,15.15
2019-06-07T07:09:35.738Z,15.23
2019-06-07T07:10:35.967Z,15.19
2019-06-07T07:11:52.508Z,15.19
2019-06-07T07:12:38.017Z,15.41
2019-06-07T07:13:36.584Z,15.43
2019-06-07T07:14:36.786Z,15.45
2019-06-07T07:15:37.164Z,15.52
2019-06-07T07:16:37.217Z,15.57
2019-06-07T07:17:52.712Z,16.03
2019-06-07T07:18:39.515Z,16.15
2019-06-07T07:19:42.559Z,16.18
2019-06-07T07:20:37.973Z,16.22
2019-06-07T07:21:38.197Z,16.58
2019-06-07T07:22:42.759Z,16.60
2019-06-07T07:23:38.610Z,16.80
2019-06-07T07:24:41.817Z,16.60
2019-06-07T07:25:42.775Z,16.77
2019-06-07T07:26:39.109Z,16.71
2019-06-07T07:27:39.330Z,16.52
2019-06-07T07:28:39.541Z,16.07
2019-06-07T07:29:43.789Z,15.94
2019-06-07T07:30:39.961Z,16.01
2019-06-07T07:31:43.009Z,16.68
2019-06-07T07:32:46.478Z,16.70
2019-06-07T07:34:24.073Z,17.29
2019-06-07T07:34:46.228Z,17.67
2019-06-07T07:35:40.921Z,18.42
2019-06-07T07:36:48.302Z,19.21
2019-06-07T07:37:41.347Z,19.08
2019-06-07T07:39:06.661Z,19.39
2019-06-07T07:39:41.760Z,19.46
2019-06-07T07:42:21.638Z,18.68
2019-06-07T07:43:17.474Z,19.13
2019-06-07T07:44:22.018Z,19.61
2019-06-07T07:45:20.982Z,19.66
2019-06-07T07:46:29.019Z,18.94
2019-06-07T07:47:14.643Z,18.40
2019-06-07T07:48:18.806Z,18.58
2019-06-07T07:49:15.634Z,18.77
2019-06-07T07:50:16.448Z,18.92
2019-06-07T07:51:17.031Z,18.77
2019-06-07T07:52:17.478Z,18.86
2019-06-07T07:53:15.672Z,18.39
2019-06-07T07:54:17.478Z,17.97
2019-06-07T07:55:20.031Z,18.27
2019-06-07T07:56:17.402Z,18.31
2019-06-07T07:57:24.250Z,18.46
2019-06-07T07:58:18.486Z,18.77
2019-06-07T07:59:18.482Z,18.58
2019-06-07T08:00:49.431Z,18.95
2019-06-07T08:01:19.964Z,18.99
2019-06-07T08:02:18.981Z,18.72
2019-06-07T08:03:17.478Z,18.31
2019-06-07T08:04:17.701Z,18.12
2019-06-07T08:05:25.592Z,18.18
2019-06-07T08:06:19.981Z,18.06
2019-06-07T08:07:19.985Z,17.85
2019-06-07T08:08:19.339Z,18.02
2019-06-07T08:09:21.433Z,17.89
2019-06-07T08:10:22.567Z,18.49
2019-06-07T08:11:39.985Z,18.43
2019-06-07T08:12:19.366Z,19.08
2019-06-07T08:13:26.394Z,19.70
2019-06-07T08:14:23.856Z,19.54
2019-06-07T08:15:20.665Z,19.93
2019-06-07T08:16:21.533Z,19.83
2019-06-07T08:17:21.483Z,19.72
2019-06-07T08:18:27.934Z,19.51
2019-06-07T08:19:21.982Z,19.43
2019-06-07T08:20:21.982Z,18.92
2019-06-07T08:21:26.221Z,18.70
2019-06-07T08:22:22.524Z,18.99
2019-06-07T08:23:21.943Z,19.14
2019-06-07T08:24:21.183Z,19.06
2019-06-07T08:25:21.392Z,18.49
2019-06-07T08:26:21.608Z,18.43
2019-06-07T08:27:26.236Z,18.52
2019-06-07T08:28:24.452Z,18.73
2019-06-07T08:29:22.184Z,18.31
2019-06-07T08:31:22.618Z,18.18
2019-06-07T08:32:24.530Z,18.33
2019-06-07T08:33:27.218Z,18.24
2019-06-07T08:34:25.032Z,18.33
2019-06-07T08:36:40.675Z,18.54
2019-06-07T08:36:40.836Z,18.34
2019-06-07T08:38:13.595Z,18.90
2019-06-07T08:38:48.090Z,18.72
2019-06-07T08:39:25.083Z,18.94
2019-06-07T08:40:28.106Z,19.02
2019-06-07T08:41:24.408Z,19.10
2019-06-07T08:42:37.070Z,19.18
2019-06-07T08:43:31.842Z,18.79
2019-06-07T08:44:25.751Z,19.10
2019-06-07T08:45:25.965Z,19.57
2019-06-07T08:46:25.247Z,20.13
2019-06-07T08:47:26.395Z,20.80
2019-06-07T08:48:28.231Z,20.81
2019-06-07T08:49:26.769Z,20.86
2019-06-07T08:50:27.534Z,21.05
2019-06-07T08:51:30.007Z,21.69
2019-06-07T08:52:26.346Z,22.07
2019-06-07T08:53:28.484Z,22.17
2019-06-07T08:54:29.450Z,22.60
2019-06-07T08:55:29.937Z,22.94
2019-06-07T08:56:30.988Z,22.39
2019-06-07T08:57:27.349Z,22.28
2019-06-07T08:58:29.026Z,22.22
2019-06-07T08:59:28.367Z,22.49
2019-06-07T09:00:45.262Z,22.67
2019-06-07T09:01:29.511Z,22.67
2019-06-07T09:02:31.073Z,22.77
2019-06-07T09:03:29.989Z,21.76
2019-06-07T09:04:28.445Z,21.50
2019-06-07T09:05:31.563Z,21.39
2019-06-07T09:07:29.988Z,20.58
2019-06-07T09:08:32.988Z,21.11
2019-06-07T09:09:31.203Z,21.44
2019-06-07T09:10:29.651Z,21.88
2019-06-07T09:11:37.506Z,22.23
2019-06-07T09:12:33.990Z,21.85
2019-06-07T09:13:33.339Z,22.32
2019-06-07T09:14:30.574Z,22.20
2019-06-07T09:15:32.498Z,22.72
2019-06-07T09:16:32.516Z,22.72
2019-06-07T09:17:30.989Z,23.14
2019-06-07T09:18:42.697Z,22.25
2019-06-07T09:19:38.994Z,22.02
2019-06-07T09:20:36.970Z,22.38
2019-06-07T09:21:34.519Z,21.79
2019-06-07T09:22:33.975Z,21.46
2019-06-07T09:23:33.988Z,21.42
2019-06-07T09:24:32.950Z,21.83
2019-06-07T09:25:52.183Z,21.26
2019-06-07T09:26:32.782Z,20.98
2019-06-07T09:27:34.493Z,21.14
2019-06-07T09:28:33.205Z,21.57
2019-06-07T09:29:33.419Z,21.53
2019-06-07T09:30:33.680Z,21.32
2019-06-07T09:31:52.915Z,21.42
2019-06-07T09:32:35.151Z,21.67
2019-06-07T09:33:34.181Z,22.07
2019-06-07T09:34:34.397Z,22.49
2019-06-07T09:35:38.490Z,22.27
2019-06-07T09:36:34.830Z,21.91
2019-06-07T09:38:17.661Z,22.28
2019-06-07T09:38:35.241Z,22.20
2019-06-07T09:39:36.838Z,22.07
2019-06-07T09:40:37.493Z,21.78
2019-06-07T09:41:47.328Z,21.83
2019-06-07T09:42:36.858Z,22.10
2019-06-07T09:44:36.479Z,22.31
2019-06-07T09:45:52.503Z,22.62
2019-06-07T09:46:38.538Z,22.60
2019-06-07T09:47:39.473Z,22.38
2019-06-07T09:49:37.437Z,22.57
2019-06-07T09:50:41.044Z,23.01
2019-06-07T09:51:41.940Z,23.50
2019-06-07T09:52:58.049Z,23.95
2019-06-07T09:53:38.993Z,24.05
2019-06-07T09:55:05.892Z,23.90
2019-06-07T09:55:38.366Z,23.98
2019-06-07T09:56:42.509Z,23.50
2019-06-07T09:57:38.762Z,23.52
2019-06-07T09:58:54.600Z,23.52
2019-06-07T09:59:39.197Z,23.26
2019-06-07T10:00:42.054Z,23.42
2019-06-07T10:01:40.494Z,23.79
2019-06-07T10:02:41.531Z,23.45
2019-06-07T10:03:40.952Z,23.19
2019-06-07T10:04:41.991Z,22.92
2019-06-07T10:05:42.041Z,22.53
2019-06-07T10:06:44.003Z,22.37
2019-06-07T10:08:00.040Z,22.74
2019-06-07T10:09:56.924Z,23.15
2019-06-07T10:10:09.805Z,23.01
2019-06-07T10:10:43.386Z,23.12
2019-06-07T10:11:41.404Z,23.05
2019-06-07T10:13:04.048Z,22.65
2019-06-07T10:13:43.495Z,22.25
2019-06-07T10:14:46.460Z,22.37
2019-06-07T10:15:48.203Z,22.69
2019-06-07T10:16:47.523Z,22.97
2019-06-07T10:17:42.553Z,23.43
2019-06-07T10:18:46.509Z,23.45
2019-06-07T10:19:44.500Z,23.39
2019-06-07T10:20:44.248Z,23.89
2019-06-07T10:21:50.024Z,24.04
2019-06-07T10:22:45.061Z,23.68
2019-06-07T10:23:43.650Z,23.77
2019-06-07T10:24:44.478Z,24.02
2019-06-07T10:25:55.535Z,23.49
2019-06-07T10:26:45.002Z,23.38
2019-06-07T10:27:44.357Z,22.90
2019-06-07T10:28:44.590Z,22.82
2019-06-07T10:29:45.851Z,22.75
2019-06-07T10:30:46.521Z,22.16
2019-06-07T10:31:46.161Z,22.27
2019-06-07T10:32:47.055Z,22.46
2019-06-07T10:33:47.984Z,22.69
2019-06-07T10:34:45.587Z,23.01
2019-06-07T10:35:47.509Z,23.38
2019-06-07T10:36:46.005Z,23.79
2019-06-07T10:37:50.014Z,23.31
2019-06-07T10:38:47.001Z,23.47
2019-06-07T10:39:48.914Z,23.40
2019-06-07T10:40:46.710Z,23.47
2019-06-07T10:41:48.507Z,23.60
2019-06-07T10:42:47.092Z,24.00
2019-06-07T10:44:03.339Z,24.01
2019-06-07T10:44:48.458Z,23.87
2019-06-07T10:45:51.502Z,23.26
2019-06-07T10:46:49.456Z,23.50
2019-06-07T10:47:48.082Z,23.31
2019-06-07T10:48:48.262Z,23.01
2019-06-07T10:49:50.499Z,23.11
2019-06-07T10:51:11.422Z,22.83
2019-06-07T10:51:50.975Z,23.19
2019-06-07T10:52:50.998Z,23.47
2019-06-07T10:53:51.015Z,23.83
2019-06-07T10:54:52.955Z,23.50
2019-06-07T10:55:51.504Z,23.50
2019-06-07T10:56:50.850Z,23.70
2019-06-07T10:57:51.133Z,23.67
2019-06-07T10:58:51.454Z,23.64
2019-06-07T10:59:50.446Z,23.19
2019-06-07T11:00:52.863Z,23.22
2019-06-07T11:01:52.870Z,22.99
2019-06-07T11:02:55.304Z,22.87
2019-06-07T11:03:53.011Z,22.53
2019-06-07T11:04:52.952Z,22.44
2019-06-07T11:05:53.479Z,22.14
2019-06-07T11:06:53.497Z,21.99
2019-06-07T11:07:53.504Z,22.27
2019-06-07T11:08:54.019Z,23.04
2019-06-07T11:10:06.430Z,23.08
2019-06-07T11:10:55.020Z,23.35
2019-06-07T11:11:54.522Z,23.71
2019-06-07T11:12:52.837Z,24.00
2019-06-07T11:13:57.520Z,23.38
2019-06-07T11:14:53.961Z,23.15
2019-06-07T11:15:53.480Z,23.43
2019-06-07T11:17:07.298Z,23.50
2019-06-07T11:17:57.528Z,23.53
2019-06-07T11:18:55.542Z,23.62
2019-06-07T11:19:55.508Z,23.27
2019-06-07T11:20:58.002Z,22.99
2019-06-07T11:21:56.008Z,22.67
2019-06-07T11:22:58.514Z,22.16
2019-06-07T11:23:56.819Z,22.09
2019-06-07T11:24:57.002Z,22.29
2019-06-07T11:26:03.063Z,22.23
2019-06-07T11:26:57.017Z,22.22
2019-06-07T11:27:57.003Z,22.31
2019-06-07T11:28:56.617Z,22.57
2019-06-07T11:30:00.423Z,22.59
2019-06-07T11:30:57.516Z,22.78
2019-06-07T11:32:17.102Z,22.32
2019-06-07T11:33:00.064Z,22.28
2019-06-07T11:33:58.024Z,22.25
2019-06-07T11:34:58.548Z,22.38
2019-06-07T11:35:58.226Z,22.49
2019-06-07T11:36:59.157Z,22.38
2019-06-07T11:38:02.950Z,22.41
2019-06-07T11:39:10.932Z,22.71
2019-06-07T11:40:06.494Z,23.08
2019-06-07T11:41:00.456Z,23.23
2019-06-07T11:41:59.506Z,23.04
2019-06-07T11:43:20.069Z,22.94
2019-06-07T11:44:00.058Z,23.08
2019-06-07T11:44:59.512Z,22.89
2019-06-07T11:46:02.511Z,22.69
2019-06-07T11:47:00.544Z,22.62
2019-06-07T11:48:01.895Z,22.60
2019-06-07T11:49:20.247Z,22.20
2019-06-07T11:49:59.308Z,22.49
2019-06-07T11:50:59.793Z,22.62
2019-06-07T11:51:59.802Z,22.65
2019-06-07T11:53:08.561Z,22.72
2019-06-07T11:54:00.059Z,22.69
2019-06-07T11:55:00.311Z,22.72
2019-06-07T11:56:00.479Z,22.71
2019-06-07T11:57:08.777Z,22.43
2019-06-07T11:58:02.543Z,22.69
2019-06-07T11:59:04.550Z,22.65
2019-06-07T12:00:09.386Z,22.68
2019-06-07T12:01:03.052Z,23.08
2019-06-07T12:02:03.009Z,23.12
2019-06-07T12:03:01.630Z,23.11
2019-06-07T12:04:05.518Z,22.96
2019-06-07T12:05:01.975Z,22.87
2019-06-07T12:06:04.017Z,22.72
2019-06-07T12:07:02.373Z,22.74
2019-06-07T12:08:07.964Z,22.74
2019-06-07T12:09:04.517Z,22.87
2019-06-07T12:10:05.463Z,23.07
2019-06-07T12:11:04.716Z,23.32
2019-06-07T12:12:08.176Z,23.23
2019-06-07T12:13:12.232Z,23.14
2019-06-07T12:14:04.665Z,23.22
2019-06-07T12:15:05.523Z,23.34
2019-06-07T12:16:05.516Z,23.29
2019-06-07T12:17:09.004Z,23.20
2019-06-07T12:18:06.009Z,23.12
2019-06-07T12:19:05.471Z,23.12
2019-06-07T12:20:08.699Z,23.17
2019-06-07T12:21:09.399Z,23.27
2019-06-07T12:22:10.010Z,23.27
2019-06-07T12:23:09.962Z,23.47
2019-06-07T12:24:10.318Z,23.71
2019-06-07T12:25:08.482Z,23.77
2019-06-07T12:26:07.515Z,23.64
2019-06-07T12:27:08.018Z,23.77
2019-06-07T12:28:08.063Z,23.89
2019-06-07T12:29:07.404Z,23.94
2019-06-07T12:30:10.034Z,24.23
2019-06-07T12:31:08.511Z,24.24
2019-06-07T12:32:08.522Z,24.41
2019-06-07T12:33:09.016Z,24.22
2019-06-07T12:34:07.444Z,24.39
2019-06-07T12:35:07.632Z,24.41
2019-06-07T12:36:07.879Z,24.47
2019-06-07T12:37:11.711Z,24.44
2019-06-07T12:38:24.051Z,24.16
2019-06-07T12:39:10.067Z,23.97
2019-06-07T12:40:10.159Z,23.92
2019-06-07T12:41:10.516Z,23.94
2019-06-07T12:42:10.539Z,23.80
2019-06-07T12:43:09.016Z,23.79
2019-06-07T12:44:16.590Z,23.72
2019-06-07T12:45:12.841Z,23.94
2019-06-07T12:46:14.340Z,23.95
2019-06-07T12:47:10.721Z,24.13
2019-06-07T12:48:09.963Z,24.17
2019-06-07T12:49:12.976Z,24.20
2019-06-07T12:50:10.389Z,24.31
2019-06-07T12:51:19.410Z,24.50
2019-06-07T12:52:13.847Z,24.63
2019-06-07T12:53:13.593Z,24.52
2019-06-07T12:54:11.108Z,24.50
2019-06-07T12:55:16.039Z,24.23
2019-06-07T12:56:11.539Z,24.26
2019-06-07T12:57:13.968Z,24.34
2019-06-07T12:58:15.904Z,24.41
2019-06-07T12:59:20.060Z,24.47
2019-06-07T13:00:14.278Z,24.41
2019-06-07T13:01:16.022Z,24.29
2019-06-07T13:02:14.119Z,24.26